Olen, Belgium
Current Conditions -  °F | °C
As of 5:11 PM on Wednesday 28 Jan 2015 (Local Time) from EBDT Reporting Station
Broken Clouds Broken Clouds  
Wind Chill: 37°   Ceiling: 2200
Heat Index: 45°   Visibility: 1.7mi
Dew Point: 41°   Wind: 20mph
Humidity: 87%   Direction: 230°SW
Pressure: 29.5"   Gusts: 35mph
Location:  51.14°N, 4.86°E
Report Text: EBDT 281611Z AUTO 23017G30KT 2800 FEW010/// SCT017/// BKN022/// 07/05 Q0999 YLO
Loading
Personal Weather Stations






























Interactive Weather Map New forecast layout! Learn more

10-Day Weather Forecast

Advertisements
Track Severe Weather on mobile